createdAt,value
2023-01-18T00:01:52.229Z,90446.41
2023-01-18T00:04:24.335Z,90431.69
2023-01-18T00:06:57.105Z,90445.31
2023-01-18T00:09:29.155Z,90450.97
2023-01-18T00:12:02.507Z,90439.16
2023-01-18T00:14:34.614Z,90460.28
2023-01-18T00:17:06.710Z,90445.75
2023-01-18T00:19:38.746Z,90463.75
2023-01-18T00:22:10.851Z,90467.00
2023-01-18T00:24:42.921Z,90435.56
2023-01-18T00:27:16.091Z,90428.38
2023-01-18T00:29:48.138Z,90436.00
2023-01-18T00:32:20.331Z,90419.66
2023-01-18T00:34:52.330Z,90398.16
2023-01-18T00:37:24.547Z,90411.38
2023-01-18T00:39:56.556Z,90424.38
2023-01-18T00:42:47.413Z,90410.41
2023-01-18T00:45:19.550Z,90421.13
2023-01-18T00:47:51.787Z,90424.91
2023-01-18T00:50:23.932Z,90399.63
2023-01-18T00:52:58.179Z,90385.63
2023-01-18T00:55:30.492Z,90387.25
2023-01-18T00:58:03.204Z,90394.44
2023-01-18T01:00:35.227Z,90397.69
2023-01-18T01:03:07.283Z,90389.81
2023-01-18T01:05:57.559Z,90394.34
2023-01-18T01:08:29.554Z,90359.84
2023-01-18T01:11:05.825Z,90363.88
2023-01-18T01:13:56.899Z,90368.84
2023-01-18T01:16:46.901Z,90386.75
2023-01-18T01:19:37.084Z,90383.56
2023-01-18T01:22:27.097Z,90420.91
2023-01-18T01:25:17.087Z,90390.63
2023-01-18T01:27:49.473Z,90386.72
2023-01-18T01:30:22.373Z,90385.84
2023-01-18T01:32:54.845Z,90419.16
2023-01-18T01:35:27.192Z,90373.16
2023-01-18T01:37:59.285Z,90383.78
2023-01-18T01:40:31.327Z,90368.72
2023-01-18T01:43:03.441Z,90356.88
2023-01-18T01:45:36.193Z,90381.50
2023-01-18T01:48:09.713Z,90396.59
2023-01-18T01:50:41.782Z,90388.03
2023-01-18T01:53:13.887Z,90374.34
2023-01-18T01:55:46.643Z,90400.16
2023-01-18T01:58:22.304Z,90378.00
2023-01-18T02:00:55.122Z,90383.09
2023-01-18T02:03:28.028Z,90382.91
2023-01-18T02:06:02.115Z,90376.63
2023-01-18T02:08:34.350Z,90356.03
2023-01-18T02:11:06.318Z,90361.63
2023-01-18T02:13:38.444Z,90369.47
2023-01-18T02:16:17.452Z,90364.88
2023-01-18T02:18:54.630Z,90358.31
2023-01-18T02:21:28.416Z,90344.44
2023-01-18T02:24:27.579Z,90355.84
2023-01-18T02:27:01.542Z,90345.38
2023-01-18T02:29:51.512Z,90358.25
2023-01-18T02:32:29.996Z,90371.56
2023-01-18T02:35:07.042Z,90389.78
2023-01-18T02:37:42.949Z,90384.38
2023-01-18T02:40:19.001Z,90381.22
2023-01-18T02:43:09.797Z,90363.88
2023-01-18T02:46:01.863Z,90360.63
2023-01-18T02:48:36.510Z,90349.75
2023-01-18T02:51:08.937Z,90351.72
2023-01-18T02:53:42.298Z,90383.63
2023-01-18T02:56:16.079Z,90383.81
2023-01-18T02:58:53.123Z,90368.63
2023-01-18T03:01:28.523Z,90371.41
2023-01-18T03:04:02.946Z,90369.72
2023-01-18T03:06:34.996Z,90360.34
2023-01-18T03:09:07.303Z,90379.03
2023-01-18T03:11:43.682Z,90371.56
2023-01-18T03:14:20.387Z,90366.63
2023-01-18T03:16:58.184Z,90355.69
2023-01-18T03:19:55.298Z,90366.72
2023-01-18T03:22:46.834Z,90368.47
2023-01-18T03:25:20.359Z,90351.34
2023-01-18T03:28:12.871Z,90349.69
2023-01-18T03:31:04.304Z,90359.00
2023-01-18T03:33:43.955Z,90357.25
2023-01-18T03:36:19.250Z,90380.53
2023-01-18T03:38:54.172Z,90355.16
2023-01-18T03:41:28.862Z,90355.94
2023-01-18T03:44:03.844Z,90362.16
2023-01-18T03:46:36.603Z,90361.66
2023-01-18T03:49:09.514Z,90372.25
2023-01-18T03:51:47.800Z,90359.66
2023-01-18T03:54:23.887Z,90364.47
2023-01-18T03:56:58.760Z,90344.03
2023-01-18T03:59:33.860Z,90339.59
2023-01-18T04:02:06.744Z,90355.81
2023-01-18T04:04:39.051Z,90376.56
2023-01-18T04:07:11.810Z,90379.66
2023-01-18T04:09:43.800Z,90369.97
2023-01-18T04:12:16.012Z,90358.16
2023-01-18T04:14:48.046Z,90365.41
2023-01-18T04:17:20.372Z,90366.91
2023-01-18T04:19:52.540Z,90378.25
2023-01-18T04:22:25.306Z,90368.00
2023-01-18T04:24:57.308Z,90386.00
2023-01-18T04:27:29.385Z,90380.16
2023-01-18T04:30:01.570Z,90389.94
2023-01-18T04:32:34.009Z,90397.75
2023-01-18T04:35:06.515Z,90396.41
2023-01-18T04:37:39.252Z,90402.44
2023-01-18T04:40:11.885Z,90349.75
2023-01-18T04:42:43.994Z,90413.63
2023-01-18T04:45:17.507Z,90359.09
2023-01-18T04:47:49.542Z,90369.84
2023-01-18T04:50:21.663Z,90368.00
2023-01-18T04:52:54.341Z,90355.06
2023-01-18T04:55:26.577Z,90359.69
2023-01-18T04:57:58.713Z,90360.19
2023-01-18T05:00:30.862Z,90373.38
2023-01-18T05:03:02.906Z,90342.88
2023-01-18T05:05:35.138Z,90365.09
2023-01-18T05:08:07.981Z,90348.09
2023-01-18T05:10:40.030Z,90351.34
2023-01-18T05:13:12.039Z,90377.81
2023-01-18T05:15:44.172Z,90416.88
2023-01-18T05:18:16.211Z,90339.69
2023-01-18T05:20:48.315Z,90365.75
2023-01-18T05:23:21.542Z,90367.94
2023-01-18T05:25:53.954Z,90352.47
2023-01-18T05:28:27.144Z,90379.72
2023-01-18T05:30:59.144Z,90393.59
2023-01-18T05:33:31.263Z,90378.69
2023-01-18T05:36:03.434Z,90391.41
2023-01-18T05:38:36.078Z,90367.38
2023-01-18T05:41:08.187Z,90388.97
2023-01-18T05:43:40.590Z,90392.09
2023-01-18T05:46:12.672Z,90398.13
2023-01-18T05:48:44.804Z,90393.84
2023-01-18T05:51:16.807Z,90408.41
2023-01-18T05:53:49.604Z,90414.53
2023-01-18T05:56:21.772Z,90409.16
2023-01-18T05:58:53.900Z,90419.06
2023-01-18T06:01:26.010Z,90430.19
2023-01-18T06:03:58.267Z,90419.91
2023-01-18T06:06:30.697Z,90436.81
2023-01-18T06:09:03.523Z,90454.50
2023-01-18T06:11:35.868Z,90459.44
2023-01-18T06:14:08.201Z,90463.81
2023-01-18T06:16:40.278Z,90442.56
2023-01-18T06:19:12.602Z,90456.81
2023-01-18T06:21:44.663Z,90457.50
2023-01-18T06:24:17.451Z,90470.53
2023-01-18T06:26:49.649Z,90503.88
2023-01-18T06:29:21.885Z,90501.13
2023-01-18T06:31:53.980Z,90484.91
2023-01-18T06:34:26.070Z,90495.31
2023-01-18T06:36:58.351Z,90475.34
2023-01-18T06:39:31.319Z,90505.78
2023-01-18T06:42:03.541Z,90526.97
2023-01-18T06:44:35.573Z,90504.94
2023-01-18T06:47:07.673Z,90498.44
2023-01-18T06:49:39.823Z,90510.97
2023-01-18T06:52:11.924Z,90503.41
2023-01-18T06:54:44.603Z,90509.63
2023-01-18T06:57:16.788Z,90500.25
2023-01-18T06:59:48.834Z,90501.47
2023-01-18T07:02:20.932Z,90492.44
2023-01-18T07:04:53.759Z,90509.81
2023-01-18T07:07:26.096Z,90507.53
2023-01-18T07:09:58.823Z,90490.81
2023-01-18T07:12:30.902Z,90497.06
2023-01-18T07:15:20.411Z,90523.50
2023-01-18T07:17:53.431Z,90508.63
2023-01-18T07:20:25.476Z,90498.50
2023-01-18T07:22:58.503Z,90498.41
2023-01-18T07:25:31.572Z,90488.66
2023-01-18T07:28:04.375Z,90482.19
2023-01-18T07:30:36.490Z,90489.66
2023-01-18T07:33:08.553Z,90499.13
2023-01-18T07:35:40.822Z,90519.75
2023-01-18T07:38:12.968Z,90488.94
2023-01-18T07:40:46.391Z,90508.69
2023-01-18T07:43:18.573Z,90537.31
2023-01-18T07:45:52.795Z,90532.63
2023-01-18T07:48:25.267Z,90535.25
2023-01-18T07:50:58.413Z,90557.81
2023-01-18T07:53:31.192Z,90556.16
2023-01-18T07:56:05.152Z,90581.38
2023-01-18T07:58:37.502Z,90575.03
2023-01-18T08:01:11.551Z,90586.78
2023-01-18T08:03:44.660Z,90592.66
2023-01-18T08:06:19.611Z,90599.25
2023-01-18T08:08:52.103Z,90611.22
2023-01-18T08:11:25.073Z,90615.97
2023-01-18T08:13:57.273Z,90606.38
2023-01-18T08:16:29.570Z,90606.03
2023-01-18T08:19:01.684Z,90628.00
2023-01-18T08:21:33.853Z,90628.75
2023-01-18T08:24:06.174Z,90631.13
2023-01-18T08:26:38.988Z,90615.81
2023-01-18T08:29:11.061Z,90639.53
2023-01-18T08:31:43.413Z,90651.38
2023-01-18T08:34:15.398Z,90647.13
2023-01-18T08:36:47.753Z,90636.06
2023-01-18T08:39:20.331Z,90647.34
2023-01-18T08:41:53.272Z,90619.19
2023-01-18T08:44:25.392Z,90643.41
2023-01-18T08:46:57.584Z,90639.53
2023-01-18T08:49:31.968Z,90643.50
2023-01-18T08:52:04.279Z,90658.50
2023-01-18T08:54:36.412Z,90657.00
2023-01-18T08:57:10.346Z,90666.00
2023-01-18T08:59:42.441Z,90677.44
2023-01-18T09:02:16.179Z,90679.16
2023-01-18T09:04:48.988Z,90690.88
2023-01-18T09:07:21.433Z,90689.59
2023-01-18T09:09:53.594Z,90715.09
2023-01-18T09:12:26.453Z,90718.16
2023-01-18T09:14:58.487Z,90716.44
2023-01-18T09:17:30.670Z,90724.81
2023-01-18T09:20:02.888Z,90739.28
2023-01-18T09:22:34.990Z,90732.31
2023-01-18T09:25:07.142Z,90730.03
2023-01-18T09:27:40.027Z,90736.97
2023-01-18T09:30:15.241Z,90732.81
2023-01-18T09:32:47.881Z,90729.16
2023-01-18T09:35:20.126Z,90749.38
2023-01-18T09:37:53.484Z,90729.47
2023-01-18T09:40:34.194Z,90741.00
2023-01-18T09:43:14.314Z,90748.00
2023-01-18T09:45:47.064Z,90742.50
2023-01-18T09:48:27.888Z,90746.91
2023-01-18T09:51:01.978Z,90744.44
2023-01-18T09:53:40.543Z,90747.00
2023-01-18T09:56:16.275Z,90749.16
2023-01-18T09:58:55.325Z,90752.47
2023-01-18T10:01:29.680Z,90742.94
2023-01-18T10:04:06.104Z,90753.00
2023-01-18T10:06:43.778Z,90754.81
2023-01-18T10:09:17.888Z,90758.47
2023-01-18T10:11:54.544Z,90766.94
2023-01-18T10:14:38.182Z,90760.78
2023-01-18T10:17:11.646Z,90765.84
2023-01-18T10:19:43.974Z,90754.13
2023-01-18T10:22:20.308Z,90767.72
2023-01-18T10:24:57.388Z,90768.78
2023-01-18T10:27:35.280Z,90761.81
2023-01-18T10:30:14.986Z,90762.53
2023-01-18T10:32:50.499Z,90762.91
2023-01-18T10:35:25.912Z,90756.44
2023-01-18T10:38:01.461Z,90766.69
2023-01-18T10:40:34.188Z,90766.03
2023-01-18T10:43:09.737Z,90767.13
2023-01-18T10:45:42.618Z,90766.94
2023-01-18T10:48:32.800Z,90762.25
2023-01-18T10:51:05.760Z,90760.53
2023-01-18T10:53:38.600Z,90758.69
2023-01-18T10:56:12.303Z,90776.28
2023-01-18T10:58:46.166Z,90768.38
2023-01-18T11:01:21.610Z,90764.41
2023-01-18T11:03:54.975Z,90751.22
2023-01-18T11:06:29.065Z,90767.13
2023-01-18T11:09:01.417Z,90767.59
2023-01-18T11:11:56.855Z,90743.63
2023-01-18T11:14:30.211Z,90750.53
2023-01-18T11:17:10.665Z,90762.50
2023-01-18T11:19:42.723Z,90754.84
2023-01-18T11:22:16.483Z,90746.13
2023-01-18T11:24:52.802Z,90749.88
2023-01-18T11:27:25.135Z,90753.41
2023-01-18T11:29:57.284Z,90763.84
2023-01-18T11:32:31.925Z,90747.69
2023-01-18T11:35:08.176Z,90751.44
2023-01-18T11:37:42.755Z,90746.50
2023-01-18T11:40:26.115Z,90758.06
2023-01-18T11:43:02.905Z,90762.09
2023-01-18T11:45:39.756Z,90744.13
2023-01-18T11:48:18.609Z,90741.41
2023-01-18T11:50:52.382Z,90755.72
2023-01-18T11:53:30.665Z,90744.59
2023-01-18T11:56:06.577Z,90751.94
2023-01-18T11:58:39.827Z,90753.09
2023-01-18T12:01:26.726Z,90761.25
2023-01-18T12:04:02.233Z,90767.91
2023-01-18T12:06:38.557Z,90754.28
2023-01-18T12:09:18.691Z,90756.38
2023-01-18T12:12:06.488Z,90758.94
2023-01-18T12:14:56.327Z,90765.19
2023-01-18T12:17:38.684Z,90754.09
2023-01-18T12:20:20.452Z,90753.84
2023-01-18T12:23:24.084Z,90771.75
2023-01-18T12:26:12.632Z,90761.88
2023-01-18T12:28:56.668Z,90773.31
2023-01-18T12:31:43.003Z,90782.88
2023-01-18T12:34:19.813Z,90789.13
2023-01-18T12:37:07.091Z,90784.84
2023-01-18T12:39:50.470Z,90780.28
2023-01-18T12:42:28.445Z,90791.25
2023-01-18T12:45:09.437Z,90789.97
2023-01-18T12:47:47.235Z,90782.03
2023-01-18T12:50:23.459Z,90793.09
2023-01-18T12:52:58.575Z,90791.91
2023-01-18T12:55:32.956Z,90795.22
2023-01-18T12:58:05.243Z,90799.03
2023-01-18T13:00:38.764Z,90806.53
2023-01-18T13:03:13.366Z,90798.28
2023-01-18T13:05:51.679Z,90805.94
2023-01-18T13:08:29.736Z,90819.00
2023-01-18T13:11:06.445Z,90804.41
2023-01-18T13:13:40.230Z,90819.00
2023-01-18T13:16:16.962Z,90790.19
2023-01-18T13:18:52.539Z,90821.84
2023-01-18T13:21:33.795Z,90817.25
2023-01-18T13:24:11.181Z,90828.03
2023-01-18T13:26:44.006Z,90815.97
2023-01-18T13:29:23.514Z,90819.06
2023-01-18T13:31:55.851Z,90823.41
2023-01-18T13:34:30.845Z,90816.41
2023-01-18T13:37:14.255Z,90825.53
2023-01-18T13:39:47.990Z,90819.34
2023-01-18T13:42:25.066Z,90815.66
2023-01-18T13:45:14.043Z,90799.91
2023-01-18T13:47:48.410Z,90818.97
2023-01-18T13:50:39.945Z,90824.66
2023-01-18T13:53:32.662Z,90832.50
2023-01-18T13:56:26.304Z,90818.94
2023-01-18T13:59:01.357Z,90831.50
2023-01-18T14:01:35.864Z,90830.25
2023-01-18T14:04:17.124Z,90837.09
2023-01-18T14:06:50.521Z,90833.31
2023-01-18T14:09:34.099Z,90845.19
2023-01-18T14:12:07.258Z,90842.06
2023-01-18T14:14:52.655Z,90843.84
2023-01-18T14:17:25.706Z,90857.25
2023-01-18T14:20:12.771Z,90846.88
2023-01-18T14:22:54.539Z,90862.41
2023-01-18T14:25:40.024Z,90864.09
2023-01-18T14:28:14.286Z,90867.91
2023-01-18T14:30:47.923Z,90863.84
2023-01-18T14:33:29.288Z,90876.22
2023-01-18T14:36:04.189Z,90879.44
2023-01-18T14:38:36.305Z,90875.56
2023-01-18T14:41:13.471Z,90878.84
2023-01-18T14:43:46.687Z,90881.94
2023-01-18T14:46:22.828Z,90866.84
2023-01-18T14:48:56.587Z,90871.75
2023-01-18T14:51:29.455Z,90875.16
2023-01-18T14:54:04.591Z,90869.38
2023-01-18T14:56:40.453Z,90873.63
2023-01-18T14:59:20.779Z,90871.53
2023-01-18T15:01:54.240Z,90878.78
2023-01-18T15:04:27.328Z,90874.38
2023-01-18T15:07:01.002Z,90871.47
2023-01-18T15:09:34.435Z,90880.38
2023-01-18T15:12:08.411Z,90881.44
2023-01-18T15:14:42.412Z,90878.97
2023-01-18T15:17:20.892Z,90881.91
2023-01-18T15:19:54.774Z,90873.84
2023-01-18T15:22:29.087Z,90888.44
2023-01-18T15:25:01.472Z,90886.44
2023-01-18T15:27:33.759Z,90879.50
2023-01-18T15:30:11.292Z,90855.34
2023-01-18T15:32:44.168Z,90876.16
2023-01-18T15:35:16.574Z,90879.25
2023-01-18T15:37:48.611Z,90880.75
2023-01-18T15:40:22.697Z,90878.59
2023-01-18T15:42:57.043Z,90888.31
2023-01-18T15:45:30.270Z,90889.19
2023-01-18T15:48:07.367Z,90886.66
2023-01-18T15:50:43.779Z,90871.50
2023-01-18T15:53:18.001Z,90888.63
2023-01-18T15:55:51.265Z,90875.72
2023-01-18T15:58:26.134Z,90872.13
2023-01-18T16:00:59.347Z,90884.97
2023-01-18T16:03:34.478Z,90884.88
2023-01-18T16:06:10.507Z,90879.66
2023-01-18T16:09:00.258Z,90887.44
2023-01-18T16:11:33.328Z,90890.47
2023-01-18T16:14:07.142Z,90896.66
2023-01-18T16:16:40.952Z,90894.69
2023-01-18T16:19:17.952Z,90886.84
2023-01-18T16:21:51.602Z,90901.13
2023-01-18T16:24:29.049Z,90901.25
2023-01-18T16:27:08.700Z,90910.94
2023-01-18T16:29:44.074Z,90911.28
2023-01-18T16:32:28.405Z,90909.31
2023-01-18T16:35:02.228Z,90904.22
2023-01-18T16:37:35.021Z,90906.94
2023-01-18T16:40:08.477Z,90899.31
2023-01-18T16:42:54.563Z,90912.16
2023-01-18T16:45:27.332Z,90908.13
2023-01-18T16:47:59.879Z,90900.50
2023-01-18T16:50:33.281Z,90900.50
2023-01-18T16:53:05.803Z,90897.69
2023-01-18T16:55:38.026Z,90883.19
2023-01-18T16:58:10.466Z,90887.09
2023-01-18T17:00:48.145Z,90890.63
2023-01-18T17:03:20.320Z,90880.47
2023-01-18T17:05:53.167Z,90884.09
2023-01-18T17:08:25.304Z,90896.59
2023-01-18T17:10:57.304Z,90893.97
2023-01-18T17:13:29.392Z,90885.91
2023-01-18T17:16:01.777Z,90888.75
2023-01-18T17:18:34.124Z,90897.22
2023-01-18T17:21:09.318Z,90887.75
2023-01-18T17:23:41.415Z,90899.28
2023-01-18T17:26:14.329Z,90894.69
2023-01-18T17:28:46.480Z,90900.28
2023-01-18T17:31:18.509Z,90904.00
2023-01-18T17:33:50.638Z,90907.28
2023-01-18T17:36:23.703Z,90902.91
2023-01-18T17:38:56.397Z,90904.56
2023-01-18T17:41:29.571Z,90915.00
2023-01-18T17:44:02.578Z,90915.41
2023-01-18T17:46:35.502Z,90907.91
2023-01-18T17:49:07.646Z,90900.97
2023-01-18T17:51:40.951Z,90914.03
2023-01-18T17:54:20.567Z,90910.41
2023-01-18T17:56:53.110Z,90921.63
2023-01-18T17:59:25.219Z,90909.78
2023-01-18T18:01:57.341Z,90912.72
2023-01-18T18:04:29.949Z,90923.69
2023-01-18T18:07:02.852Z,90915.75
2023-01-18T18:09:38.127Z,90926.19
2023-01-18T18:12:10.605Z,90924.47
2023-01-18T18:14:43.006Z,90925.88
2023-01-18T18:17:15.060Z,90926.31
2023-01-18T18:19:47.149Z,90931.50
2023-01-18T18:22:20.030Z,90927.94
2023-01-18T18:24:52.406Z,90940.53
2023-01-18T18:27:26.626Z,90933.81
2023-01-18T18:30:03.336Z,90942.16
2023-01-18T18:32:35.465Z,90954.56
2023-01-18T18:35:23.100Z,90963.03
2023-01-18T18:37:57.607Z,90960.41
2023-01-18T18:40:29.986Z,90962.91
2023-01-18T18:43:03.218Z,90977.25
2023-01-18T18:45:35.567Z,90983.97
2023-01-18T18:48:08.825Z,90982.53
2023-01-18T18:50:41.270Z,90982.88
2023-01-18T18:53:29.701Z,90979.75
2023-01-18T18:56:08.550Z,90980.81
2023-01-18T18:58:40.901Z,90998.41
2023-01-18T19:01:23.323Z,90992.81
2023-01-18T19:03:56.278Z,90985.41
2023-01-18T19:06:28.396Z,90981.75
2023-01-18T19:09:01.450Z,90985.88
2023-01-18T19:11:34.746Z,90990.78
2023-01-18T19:14:09.080Z,90993.88
2023-01-18T19:16:41.305Z,91000.03
2023-01-18T19:19:13.575Z,91016.75
2023-01-18T19:21:47.452Z,90987.94
2023-01-18T19:24:20.175Z,90999.94
2023-01-18T19:26:52.328Z,91004.38
2023-01-18T19:29:24.600Z,90997.81
2023-01-18T19:31:56.948Z,90988.00
2023-01-18T19:34:28.966Z,90993.50
2023-01-18T19:37:01.581Z,90980.06
2023-01-18T19:39:34.456Z,90992.91
2023-01-18T19:42:06.659Z,90997.53
2023-01-18T19:44:38.745Z,91000.16
2023-01-18T19:47:10.879Z,91002.00
2023-01-18T19:49:44.760Z,91013.09
2023-01-18T19:52:17.070Z,91015.34
2023-01-18T19:54:49.816Z,91029.28
2023-01-18T19:57:21.908Z,91029.16
2023-01-18T19:59:53.936Z,91019.47
2023-01-18T20:02:26.344Z,91024.75
2023-01-18T20:04:59.013Z,91024.81
2023-01-18T20:07:31.304Z,91016.44
2023-01-18T20:10:04.465Z,91003.03
2023-01-18T20:12:37.701Z,91008.81
2023-01-18T20:15:10.040Z,91012.50
2023-01-18T20:17:42.129Z,91013.72
2023-01-18T20:20:24.157Z,91009.63
2023-01-18T20:23:04.371Z,91006.16
2023-01-18T20:25:37.208Z,91008.69
2023-01-18T20:28:09.345Z,90986.31
2023-01-18T20:30:46.612Z,90976.94
2023-01-18T20:33:19.131Z,90989.91
2023-01-18T20:35:52.046Z,90994.88
2023-01-18T20:38:24.165Z,90984.50
2023-01-18T20:40:57.349Z,90981.78
2023-01-18T20:43:29.531Z,90981.69
2023-01-18T20:46:01.883Z,90993.84
2023-01-18T20:48:35.271Z,90994.63
2023-01-18T20:51:07.537Z,90973.53
2023-01-18T20:53:39.691Z,90985.34
2023-01-18T20:56:27.885Z,90968.06
2023-01-18T20:59:01.499Z,90973.72
2023-01-18T21:01:33.966Z,90960.44
2023-01-18T21:04:06.541Z,90965.13
2023-01-18T21:06:38.647Z,90957.66
2023-01-18T21:09:10.864Z,90951.34
2023-01-18T21:11:43.683Z,90951.50
2023-01-18T21:14:16.011Z,90941.81
2023-01-18T21:16:48.240Z,90938.97
2023-01-18T21:19:20.932Z,90944.22
2023-01-18T21:21:53.104Z,90943.09
2023-01-18T21:24:25.394Z,90943.69
2023-01-18T21:26:58.224Z,90943.81
2023-01-18T21:29:30.484Z,90945.63
2023-01-18T21:32:02.868Z,90935.88
2023-01-18T21:34:35.087Z,90917.53
2023-01-18T21:37:07.192Z,90902.69
2023-01-18T21:39:39.260Z,90900.50
2023-01-18T21:42:30.355Z,90880.19
2023-01-18T21:45:20.618Z,90886.84
2023-01-18T21:47:52.901Z,90875.91
2023-01-18T21:50:43.546Z,90873.59
2023-01-18T21:53:34.369Z,90881.22
2023-01-18T21:56:06.530Z,90869.63
2023-01-18T21:58:56.935Z,90884.44
2023-01-18T22:01:33.408Z,90898.22
2023-01-18T22:04:25.139Z,90905.72
2023-01-18T22:06:58.652Z,90906.72
2023-01-18T22:09:30.948Z,90926.81
2023-01-18T22:12:03.101Z,90926.28
2023-01-18T22:14:36.006Z,90923.56
2023-01-18T22:17:08.219Z,90920.09
2023-01-18T22:19:43.183Z,90916.38
2023-01-18T22:22:15.319Z,90920.66
2023-01-18T22:24:47.402Z,90914.56
2023-01-18T22:27:19.423Z,90908.56
2023-01-18T22:29:52.180Z,90910.63
2023-01-18T22:32:24.199Z,90900.19
2023-01-18T22:34:57.084Z,90879.97
2023-01-18T22:37:29.127Z,90892.25
2023-01-18T22:40:01.779Z,90896.06
2023-01-18T22:42:34.699Z,90888.03
2023-01-18T22:45:08.060Z,90870.53
2023-01-18T22:47:40.275Z,90895.84
2023-01-18T22:50:12.330Z,90911.50
2023-01-18T22:52:44.945Z,90895.53
2023-01-18T22:55:16.945Z,90896.06
2023-01-18T22:57:49.084Z,90903.47
2023-01-18T23:00:21.813Z,90924.34
2023-01-18T23:02:53.859Z,90904.78
2023-01-18T23:05:26.026Z,90897.28
2023-01-18T23:07:58.396Z,90900.97
2023-01-18T23:10:30.543Z,90904.66
2023-01-18T23:13:03.226Z,90903.44
2023-01-18T23:15:58.907Z,90915.66
2023-01-18T23:18:31.119Z,90928.78
2023-01-18T23:21:03.129Z,90921.06
2023-01-18T23:23:35.160Z,90925.28
2023-01-18T23:26:07.166Z,90927.00
2023-01-18T23:28:41.994Z,90935.59
2023-01-18T23:31:15.697Z,90918.66
2023-01-18T23:33:47.742Z,90927.69
2023-01-18T23:36:19.843Z,90913.25
2023-01-18T23:39:09.924Z,90908.84
2023-01-18T23:41:59.826Z,90888.88
2023-01-18T23:44:49.831Z,90897.19
2023-01-18T23:47:40.581Z,90900.50
2023-01-18T23:50:30.617Z,90883.66
2023-01-18T23:53:20.927Z,90897.06
2023-01-18T23:55:56.667Z,90913.72
2023-01-18T23:58:28.703Z,90915.72
